Hamilton, Illinois
Current Conditions -  °F | °C
As of 8:55 AM on Friday 31 Oct 2014 (Local Time) from KEOK Reporting Station
Clear Clear  
Wind Chill: -5°   Ceiling: Unl
Heat Index:   Visibility: 10mi
Dew Point: -6°   Wind: 16mph
Humidity: 60%   Direction: 350°N
Pressure: 30.34"   Gusts: 28mph
Location:  40.4°N, 91.34°W
Report Text: KEOK 311355Z AUTO 35014G24KT 10SM CLR 01/M06 A3034 RMK AO2
Loading
Personal Weather Stations






























Interactive Weather Map
Tropical Storm Tracking
New forecast layout! Learn more

10-Day Weather Forecast

Advertisements
Track Severe Weather on mobile